Virginia — WCX6646 — position and weather

sailwx.info

Track history (hours):
 
Tides and Currents Weather Stations Pressure Air Temp Water Temp Dewpoint Dewpoint Depression Visibility Wind Speed Wind Dir Waves Ship Positions

Virginia

Owner: W F MAGANN CORPORATION, PORTSMOUTH, VA. More information available from US FCC via Universal Licensing System and Coast Guard Vessel Documentation Center.

Last reported at 2017-Oct-20 15:59 UTC. Time now 2017-Oct-20 16:13 UTC.
Position N 36°49' W 076°18'.

Length 17 m.

Type: Tug. MMSI: 367304270.

Date/timePositionNaut miles runAvg speedWind from/ knotsBaromVisibWave heightAir tempDewpointWater temp
2017-Oct-20 15:59N 36°49' W 076°18'0 0.1
2017-Oct-20 15:29N 36°49' W 076°18'0 0.1
2017-Oct-20 14:59N 36°49' W 076°18'0 0.0
2017-Oct-20 13:59N 36°49' W 076°18'0 0.0
2017-Oct-20 13:29N 36°49' W 076°18'0 0.0
2017-Oct-20 12:59N 36°49' W 076°18'0 0.0
2017-Oct-20 12:29N 36°49' W 076°18'0 0.4
2017-Oct-20 12:00N 36°49' W 076°17'2 3.0
2017-Oct-20 11:30N 36°50' W 076°18'1 0.1
2017-Oct-19 19:11N 36°51' W 076°19'1 6.5
2017-Oct-19 19:00N 36°51' W 076°18'2 3.1
2017-Oct-19 18:30N 36°49' W 076°17'0 0.3
2017-Oct-19 18:00N 36°49' W 076°18'0 0.0
2017-Oct-19 17:30N 36°49' W 076°18'0 0.0
2017-Oct-19 16:58N 36°49' W 076°18'0 0.1
2017-Oct-19 16:29N 36°49' W 076°18'0 0.0
2017-Oct-19 15:58N 36°49' W 076°18'0 0.0
2017-Oct-19 15:22N 36°49' W 076°18'0 0.3
2017-Oct-19 15:00N 36°49' W 076°18'0 0.5
2017-Oct-19 14:29N 36°49' W 076°18'0 0.0
2017-Oct-19 13:58N 36°49' W 076°18'0 0.0
2017-Oct-19 13:28N 36°49' W 076°18'0 0.1
2017-Oct-19 12:59N 36°49' W 076°18'1 1.4
2017-Oct-19 12:30N 36°50' W 076°18'3 5.6
2017-Oct-19 12:00N 36°52' W 076°20'1 1.2
2017-Oct-19 11:30N 36°51' W 076°21'  
2017-Oct-12 17:26N 36°51' W 076°21'0 0.1
2017-Oct-12 16:59N 36°51' W 076°21'0 0.0
2017-Oct-12 16:29N 36°51' W 076°21'0 0.0
2017-Oct-12 15:59N 36°51' W 076°21'0 0.0
2017-Oct-12 15:29N 36°51' W 076°21'0 0.0
2017-Oct-12 14:59N 36°51' W 076°21'0 0.0
2017-Oct-12 14:29N 36°51' W 076°21'1 1.8
2017-Oct-12 13:57N 36°52' W 076°20'2 5.5
2017-Oct-12 13:30N 36°50' W 076°18'1 1.7
2017-Oct-12 13:00N 36°49' W 076°18'0 0.5
2017-Oct-12 12:31N 36°49' W 076°17'4 4.8
2017-Oct-12 11:46N 36°51' W 076°21'  
Track history (hours):
 
Tides and Currents Weather Stations Pressure Air Temp Water Temp Dewpoint Dewpoint Depression Visibility Wind Speed Wind Dir Waves Ship Positions

Virginia

Owner: W F MAGANN CORPORATION, PORTSMOUTH, VA. More information available from US FCC via Universal Licensing System and Coast Guard Vessel Documentation Center.

Last reported at 2017-Oct-20 15:59 UTC. Time now 2017-Oct-20 16:13 UTC.
Position N 36°49' W 076°18'.

Length 17 m.

Type: Tug. MMSI: 367304270.

Date/timePositionNaut miles runAvg speedWind from/ knotsBaromVisibWave heightAir tempDewpointWater temp
2017-Oct-20 15:59N 36°49' W 076°18'0 0.1
2017-Oct-20 15:29N 36°49' W 076°18'0 0.1
2017-Oct-20 14:59N 36°49' W 076°18'0 0.0
2017-Oct-20 13:59N 36°49' W 076°18'0 0.0
2017-Oct-20 13:29N 36°49' W 076°18'0 0.0
2017-Oct-20 12:59N 36°49' W 076°18'0 0.0
2017-Oct-20 12:29N 36°49' W 076°18'0 0.4
2017-Oct-20 12:00N 36°49' W 076°17'2 3.0
2017-Oct-20 11:30N 36°50' W 076°18'1 0.1
2017-Oct-19 19:11N 36°51' W 076°19'1 6.5
2017-Oct-19 19:00N 36°51' W 076°18'2 3.1
2017-Oct-19 18:30N 36°49' W 076°17'0 0.3
2017-Oct-19 18:00N 36°49' W 076°18'0 0.0
2017-Oct-19 17:30N 36°49' W 076°18'0 0.0
2017-Oct-19 16:58N 36°49' W 076°18'0 0.1
2017-Oct-19 16:29N 36°49' W 076°18'0 0.0
2017-Oct-19 15:58N 36°49' W 076°18'0 0.0
2017-Oct-19 15:22N 36°49' W 076°18'0 0.3
2017-Oct-19 15:00N 36°49' W 076°18'0 0.5
2017-Oct-19 14:29N 36°49' W 076°18'0 0.0
2017-Oct-19 13:58N 36°49' W 076°18'0 0.0
2017-Oct-19 13:28N 36°49' W 076°18'0 0.1
2017-Oct-19 12:59N 36°49' W 076°18'1 1.4
2017-Oct-19 12:30N 36°50' W 076°18'3 5.6
2017-Oct-19 12:00N 36°52' W 076°20'1 1.2
2017-Oct-19 11:30N 36°51' W 076°21'  
2017-Oct-12 17:26N 36°51' W 076°21'0 0.1
2017-Oct-12 16:59N 36°51' W 076°21'0 0.0
2017-Oct-12 16:29N 36°51' W 076°21'0 0.0
2017-Oct-12 15:59N 36°51' W 076°21'0 0.0
2017-Oct-12 15:29N 36°51' W 076°21'0 0.0
2017-Oct-12 14:59N 36°51' W 076°21'0 0.0
2017-Oct-12 14:29N 36°51' W 076°21'1 1.8
2017-Oct-12 13:57N 36°52' W 076°20'2 5.5
2017-Oct-12 13:30N 36°50' W 076°18'1 1.7
2017-Oct-12 13:00N 36°49' W 076°18'0 0.5
2017-Oct-12 12:31N 36°49' W 076°17'4 4.8
2017-Oct-12 11:46N 36°51' W 076°21'  

Dump ship's entire track history